sensor_id;sensor_type;location;lat;lon;timestamp;P1;durP1;ratioP1;P2;durP2;ratioP2
55146;SDS011;41039;49.830;23.988;2022-07-25T00:00:11;6.07;;;3.15;;
55146;SDS011;41039;49.830;23.988;2022-07-25T00:02:36;5.60;;;3.58;;
55146;SDS011;41039;49.830;23.988;2022-07-25T00:05:01;4.50;;;3.20;;
55146;SDS011;41039;49.830;23.988;2022-07-25T00:07:27;4.75;;;2.92;;
55146;SDS011;41039;49.830;23.988;2022-07-25T00:09:52;4.18;;;3.00;;
55146;SDS011;41039;49.830;23.988;2022-07-25T00:12:17;4.50;;;3.65;;
55146;SDS011;41039;49.830;23.988;2022-07-25T00:14:43;4.68;;;3.30;;
55146;SDS011;41039;49.830;23.988;2022-07-25T00:17:08;6.53;;;2.70;;
55146;SDS011;41039;49.830;23.988;2022-07-25T00:19:33;4.28;;;3.30;;
55146;SDS011;41039;49.830;23.988;2022-07-25T00:21:59;6.43;;;3.60;;
55146;SDS011;41039;49.830;23.988;2022-07-25T00:24:24;6.03;;;3.55;;
55146;SDS011;41039;49.830;23.988;2022-07-25T00:26:49;4.15;;;3.33;;
55146;SDS011;41039;49.830;23.988;2022-07-25T00:29:14;4.07;;;2.93;;
55146;SDS011;41039;49.830;23.988;2022-07-25T00:31:40;3.50;;;3.00;;
55146;SDS011;41039;49.830;23.988;2022-07-25T00:34:05;4.47;;;3.45;;
55146;SDS011;41039;49.830;23.988;2022-07-25T00:36:30;14.85;;;10.45;;
55146;SDS011;41039;49.830;23.988;2022-07-25T00:38:55;12.88;;;11.05;;
55146;SDS011;41039;49.830;23.988;2022-07-25T00:41:21;12.13;;;10.30;;
55146;SDS011;41039;49.830;23.988;2022-07-25T00:43:46;13.77;;;10.38;;
55146;SDS011;41039;49.830;23.988;2022-07-25T00:46:14;20.63;;;16.70;;
55146;SDS011;41039;49.830;23.988;2022-07-25T00:48:39;18.90;;;16.73;;
55146;SDS011;41039;49.830;23.988;2022-07-25T00:51:04;17.15;;;13.63;;
55146;SDS011;41039;49.830;23.988;2022-07-25T00:53:30;19.67;;;15.57;;
55146;SDS011;41039;49.830;23.988;2022-07-25T00:55:55;15.38;;;12.30;;
55146;SDS011;41039;49.830;23.988;2022-07-25T00:58:20;15.97;;;12.17;;
55146;SDS011;41039;49.830;23.988;2022-07-25T01:00:46;13.43;;;10.10;;
55146;SDS011;41039;49.830;23.988;2022-07-25T01:03:11;9.88;;;8.52;;
55146;SDS011;41039;49.830;23.988;2022-07-25T01:05:37;10.55;;;9.02;;
55146;SDS011;41039;49.830;23.988;2022-07-25T01:08:02;10.00;;;7.03;;
55146;SDS011;41039;49.830;23.988;2022-07-25T01:10:28;7.63;;;6.00;;
55146;SDS011;41039;49.830;23.988;2022-07-25T01:12:54;7.05;;;5.00;;
55146;SDS011;41039;49.830;23.988;2022-07-25T01:15:20;6.80;;;5.22;;
55146;SDS011;41039;49.830;23.988;2022-07-25T01:17:45;6.05;;;4.68;;
55146;SDS011;41039;49.830;23.988;2022-07-25T01:20:15;5.93;;;4.65;;
55146;SDS011;41039;49.830;23.988;2022-07-25T01:22:40;5.32;;;4.15;;
55146;SDS011;41039;49.830;23.988;2022-07-25T01:25:05;5.17;;;3.90;;
55146;SDS011;41039;49.830;23.988;2022-07-25T01:27:30;5.13;;;3.85;;
55146;SDS011;41039;49.830;23.988;2022-07-25T01:29:56;4.75;;;3.83;;
55146;SDS011;41039;49.830;23.988;2022-07-25T01:32:21;8.13;;;3.80;;
55146;SDS011;41039;49.830;23.988;2022-07-25T01:34:46;4.63;;;2.90;;
55146;SDS011;41039;49.830;23.988;2022-07-25T01:37:11;5.07;;;3.37;;
55146;SDS011;41039;49.830;23.988;2022-07-25T01:39:36;5.28;;;3.78;;
55146;SDS011;41039;49.830;23.988;2022-07-25T01:42:02;4.30;;;3.40;;
55146;SDS011;41039;49.830;23.988;2022-07-25T01:44:27;4.88;;;3.90;;
55146;SDS011;41039;49.830;23.988;2022-07-25T01:46:52;6.07;;;3.60;;
55146;SDS011;41039;49.830;23.988;2022-07-25T01:49:17;4.30;;;3.67;;
55146;SDS011;41039;49.830;23.988;2022-07-25T01:51:43;5.03;;;3.77;;
55146;SDS011;41039;49.830;23.988;2022-07-25T01:54:08;5.40;;;4.10;;
55146;SDS011;41039;49.830;23.988;2022-07-25T01:56:33;7.25;;;4.20;;
55146;SDS011;41039;49.830;23.988;2022-07-25T01:58:58;7.38;;;4.35;;
55146;SDS011;41039;49.830;23.988;2022-07-25T02:01:24;8.70;;;4.80;;
55146;SDS011;41039;49.830;23.988;2022-07-25T02:03:49;5.00;;;4.50;;
55146;SDS011;41039;49.830;23.988;2022-07-25T02:06:14;6.13;;;5.05;;
55146;SDS011;41039;49.830;23.988;2022-07-25T02:08:39;6.20;;;5.00;;
55146;SDS011;41039;49.830;23.988;2022-07-25T02:11:05;7.97;;;4.60;;
55146;SDS011;41039;49.830;23.988;2022-07-25T02:13:30;6.60;;;4.72;;
55146;SDS011;41039;49.830;23.988;2022-07-25T02:15:56;5.63;;;4.50;;
55146;SDS011;41039;49.830;23.988;2022-07-25T02:18:21;6.53;;;5.05;;
55146;SDS011;41039;49.830;23.988;2022-07-25T02:20:46;5.60;;;4.70;;
55146;SDS011;41039;49.830;23.988;2022-07-25T02:23:12;6.15;;;3.92;;
55146;SDS011;41039;49.830;23.988;2022-07-25T02:25:37;6.57;;;4.63;;
55146;SDS011;41039;49.830;23.988;2022-07-25T02:28:02;5.75;;;4.40;;
55146;SDS011;41039;49.830;23.988;2022-07-25T02:30:28;8.73;;;5.03;;
55146;SDS011;41039;49.830;23.988;2022-07-25T02:32:53;7.43;;;4.95;;
55146;SDS011;41039;49.830;23.988;2022-07-25T02:35:18;4.80;;;4.25;;
55146;SDS011;41039;49.830;23.988;2022-07-25T02:37:43;5.50;;;4.25;;
55146;SDS011;41039;49.830;23.988;2022-07-25T02:40:09;7.33;;;4.40;;
55146;SDS011;41039;49.830;23.988;2022-07-25T02:42:34;6.78;;;4.50;;
55146;SDS011;41039;49.830;23.988;2022-07-25T02:44:59;5.05;;;4.28;;
55146;SDS011;41039;49.830;23.988;2022-07-25T02:47:25;4.63;;;3.95;;
55146;SDS011;41039;49.830;23.988;2022-07-25T02:49:50;7.25;;;4.68;;
55146;SDS011;41039;49.830;23.988;2022-07-25T02:52:15;6.75;;;4.57;;
55146;SDS011;41039;49.830;23.988;2022-07-25T02:54:40;5.30;;;4.23;;
55146;SDS011;41039;49.830;23.988;2022-07-25T02:57:05;7.23;;;4.07;;
55146;SDS011;41039;49.830;23.988;2022-07-25T02:59:31;5.40;;;4.30;;
55146;SDS011;41039;49.830;23.988;2022-07-25T03:01:56;5.22;;;4.32;;
55146;SDS011;41039;49.830;23.988;2022-07-25T03:04:21;8.13;;;4.10;;
55146;SDS011;41039;49.830;23.988;2022-07-25T03:06:46;6.83;;;4.00;;
55146;SDS011;41039;49.830;23.988;2022-07-25T03:09:11;6.85;;;4.40;;
55146;SDS011;41039;49.830;23.988;2022-07-25T03:11:37;6.70;;;4.23;;
55146;SDS011;41039;49.830;23.988;2022-07-25T03:14:02;5.40;;;4.40;;
55146;SDS011;41039;49.830;23.988;2022-07-25T03:16:27;6.47;;;4.35;;
55146;SDS011;41039;49.830;23.988;2022-07-25T03:18:52;4.50;;;4.07;;
55146;SDS011;41039;49.830;23.988;2022-07-25T03:21:18;7.00;;;4.37;;
55146;SDS011;41039;49.830;23.988;2022-07-25T03:23:43;6.90;;;4.83;;
55146;SDS011;41039;49.830;23.988;2022-07-25T03:26:08;7.68;;;4.63;;
55146;SDS011;41039;49.830;23.988;2022-07-25T03:28:33;6.07;;;4.78;;
55146;SDS011;41039;49.830;23.988;2022-07-25T03:30:59;8.30;;;4.60;;
55146;SDS011;41039;49.830;23.988;2022-07-25T03:33:24;6.10;;;4.22;;
55146;SDS011;41039;49.830;23.988;2022-07-25T03:35:49;5.28;;;4.00;;
55146;SDS011;41039;49.830;23.988;2022-07-25T03:38:14;4.90;;;4.10;;
55146;SDS011;41039;49.830;23.988;2022-07-25T03:40:40;7.07;;;4.40;;
55146;SDS011;41039;49.830;23.988;2022-07-25T03:43:05;6.63;;;4.30;;
55146;SDS011;41039;49.830;23.988;2022-07-25T03:45:30;6.75;;;4.55;;
55146;SDS011;41039;49.830;23.988;2022-07-25T03:47:56;5.22;;;4.07;;
55146;SDS011;41039;49.830;23.988;2022-07-25T03:50:21;7.88;;;5.32;;
55146;SDS011;41039;49.830;23.988;2022-07-25T03:52:46;8.30;;;5.97;;
55146;SDS011;41039;49.830;23.988;2022-07-25T03:55:11;7.95;;;4.80;;
55146;SDS011;41039;49.830;23.988;2022-07-25T03:57:37;7.10;;;4.47;;
55146;SDS011;41039;49.830;23.988;2022-07-25T04:00:03;5.05;;;4.35;;
55146;SDS011;41039;49.830;23.988;2022-07-25T04:02:29;5.28;;;3.75;;
55146;SDS011;41039;49.830;23.988;2022-07-25T04:04:54;6.20;;;3.83;;
55146;SDS011;41039;49.830;23.988;2022-07-25T04:07:19;4.38;;;3.88;;
55146;SDS011;41039;49.830;23.988;2022-07-25T04:09:45;4.00;;;3.42;;
55146;SDS011;41039;49.830;23.988;2022-07-25T04:12:10;6.13;;;4.05;;
55146;SDS011;41039;49.830;23.988;2022-07-25T04:14:35;4.75;;;3.75;;
55146;SDS011;41039;49.830;23.988;2022-07-25T04:17:01;7.05;;;4.25;;
55146;SDS011;41039;49.830;23.988;2022-07-25T04:19:26;6.55;;;4.20;;
55146;SDS011;41039;49.830;23.988;2022-07-25T04:21:51;9.35;;;5.05;;
55146;SDS011;41039;49.830;23.988;2022-07-25T04:24:16;6.70;;;4.30;;
55146;SDS011;41039;49.830;23.988;2022-07-25T04:26:41;12.00;;;4.80;;
55146;SDS011;41039;49.830;23.988;2022-07-25T04:29:07;6.70;;;4.30;;
55146;SDS011;41039;49.830;23.988;2022-07-25T04:31:32;5.75;;;3.67;;
55146;SDS011;41039;49.830;23.988;2022-07-25T04:33:57;7.18;;;4.55;;
55146;SDS011;41039;49.830;23.988;2022-07-25T04:36:23;5.53;;;4.63;;
55146;SDS011;41039;49.830;23.988;2022-07-25T04:38:48;7.27;;;4.57;;
55146;SDS011;41039;49.830;23.988;2022-07-25T04:41:13;6.43;;;5.32;;
55146;SDS011;41039;49.830;23.988;2022-07-25T04:43:38;6.43;;;4.43;;
55146;SDS011;41039;49.830;23.988;2022-07-25T04:46:04;7.55;;;4.78;;
55146;SDS011;41039;49.830;23.988;2022-07-25T04:48:29;6.47;;;4.78;;
55146;SDS011;41039;49.830;23.988;2022-07-25T04:50:55;5.95;;;4.25;;
55146;SDS011;41039;49.830;23.988;2022-07-25T04:53:20;7.10;;;5.10;;
55146;SDS011;41039;49.830;23.988;2022-07-25T04:55:45;7.63;;;5.10;;
55146;SDS011;41039;49.830;23.988;2022-07-25T04:58:11;5.70;;;5.05;;
55146;SDS011;41039;49.830;23.988;2022-07-25T05:00:36;6.30;;;4.43;;
55146;SDS011;41039;49.830;23.988;2022-07-25T05:03:01;8.13;;;6.13;;
55146;SDS011;41039;49.830;23.988;2022-07-25T05:05:27;11.00;;;7.80;;
55146;SDS011;41039;49.830;23.988;2022-07-25T05:07:55;11.57;;;7.10;;
55146;SDS011;41039;49.830;23.988;2022-07-25T05:10:21;13.35;;;10.95;;
55146;SDS011;41039;49.830;23.988;2022-07-25T05:12:46;20.80;;;17.13;;
55146;SDS011;41039;49.830;23.988;2022-07-25T05:15:11;23.70;;;19.60;;
55146;SDS011;41039;49.830;23.988;2022-07-25T05:17:36;23.70;;;20.50;;
55146;SDS011;41039;49.830;23.988;2022-07-25T05:20:02;23.70;;;18.85;;
55146;SDS011;41039;49.830;23.988;2022-07-25T05:22:27;22.00;;;19.20;;
55146;SDS011;41039;49.830;23.988;2022-07-25T05:24:52;26.00;;;19.60;;
55146;SDS011;41039;49.830;23.988;2022-07-25T05:27:18;26.58;;;20.35;;
55146;SDS011;41039;49.830;23.988;2022-07-25T05:29:43;27.98;;;24.30;;
55146;SDS011;41039;49.830;23.988;2022-07-25T05:32:08;37.50;;;28.58;;
55146;SDS011;41039;49.830;23.988;2022-07-25T05:34:33;26.50;;;22.60;;
55146;SDS011;41039;49.830;23.988;2022-07-25T05:36:59;27.23;;;19.97;;
55146;SDS011;41039;49.830;23.988;2022-07-25T05:39:24;25.85;;;20.63;;
55146;SDS011;41039;49.830;23.988;2022-07-25T05:41:49;28.33;;;24.17;;
55146;SDS011;41039;49.830;23.988;2022-07-25T05:44:14;32.13;;;28.65;;
55146;SDS011;41039;49.830;23.988;2022-07-25T05:46:40;37.90;;;33.80;;
55146;SDS011;41039;49.830;23.988;2022-07-25T05:49:05;28.08;;;23.25;;
55146;SDS011;41039;49.830;23.988;2022-07-25T05:51:30;28.27;;;23.70;;
55146;SDS011;41039;49.830;23.988;2022-07-25T05:53:56;27.65;;;23.05;;
55146;SDS011;41039;49.830;23.988;2022-07-25T05:56:21;36.60;;;31.27;;
55146;SDS011;41039;49.830;23.988;2022-07-25T05:58:46;47.10;;;40.83;;
55146;SDS011;41039;49.830;23.988;2022-07-25T06:01:12;26.67;;;22.67;;
55146;SDS011;41039;49.830;23.988;2022-07-25T06:03:37;34.45;;;30.50;;
55146;SDS011;41039;49.830;23.988;2022-07-25T06:06:02;25.95;;;19.55;;
55146;SDS011;41039;49.830;23.988;2022-07-25T06:08:27;14.68;;;11.85;;
55146;SDS011;41039;49.830;23.988;2022-07-25T06:10:54;10.70;;;7.28;;
55146;SDS011;41039;49.830;23.988;2022-07-25T06:13:20;6.82;;;3.70;;
55146;SDS011;41039;49.830;23.988;2022-07-25T06:15:45;5.85;;;4.00;;
55146;SDS011;41039;49.830;23.988;2022-07-25T06:18:10;10.88;;;4.70;;
55146;SDS011;41039;49.830;23.988;2022-07-25T06:20:36;6.32;;;4.03;;
55146;SDS011;41039;49.830;23.988;2022-07-25T06:23:01;7.07;;;4.10;;
55146;SDS011;41039;49.830;23.988;2022-07-25T06:25:27;5.00;;;3.42;;
55146;SDS011;41039;49.830;23.988;2022-07-25T06:27:53;6.57;;;3.53;;
55146;SDS011;41039;49.830;23.988;2022-07-25T06:30:18;5.63;;;4.00;;
55146;SDS011;41039;49.830;23.988;2022-07-25T06:32:43;7.03;;;3.30;;
55146;SDS011;41039;49.830;23.988;2022-07-25T06:35:08;10.38;;;3.83;;
55146;SDS011;41039;49.830;23.988;2022-07-25T06:37:35;5.47;;;3.10;;
55146;SDS011;41039;49.830;23.988;2022-07-25T06:40:00;5.97;;;2.90;;
55146;SDS011;41039;49.830;23.988;2022-07-25T06:42:26;8.97;;;3.57;;
55146;SDS011;41039;49.830;23.988;2022-07-25T06:44:51;7.40;;;5.38;;
55146;SDS011;41039;49.830;23.988;2022-07-25T06:47:16;17.33;;;14.87;;
55146;SDS011;41039;49.830;23.988;2022-07-25T06:49:41;4.23;;;3.13;;
55146;SDS011;41039;49.830;23.988;2022-07-25T06:52:07;5.95;;;2.92;;
55146;SDS011;41039;49.830;23.988;2022-07-25T06:54:32;3.83;;;2.28;;
55146;SDS011;41039;49.830;23.988;2022-07-25T06:56:57;4.80;;;2.58;;
55146;SDS011;41039;49.830;23.988;2022-07-25T06:59:22;14.83;;;12.33;;
55146;SDS011;41039;49.830;23.988;2022-07-25T07:01:48;4.47;;;3.67;;
55146;SDS011;41039;49.830;23.988;2022-07-25T07:04:13;6.03;;;2.33;;
55146;SDS011;41039;49.830;23.988;2022-07-25T07:06:38;3.92;;;1.88;;
55146;SDS011;41039;49.830;23.988;2022-07-25T07:09:04;3.78;;;2.33;;
55146;SDS011;41039;49.830;23.988;2022-07-25T07:11:29;4.13;;;2.30;;
55146;SDS011;41039;49.830;23.988;2022-07-25T07:13:54;6.18;;;2.90;;
55146;SDS011;41039;49.830;23.988;2022-07-25T07:16:19;4.20;;;2.67;;
55146;SDS011;41039;49.830;23.988;2022-07-25T07:18:44;3.10;;;2.13;;
55146;SDS011;41039;49.830;23.988;2022-07-25T07:21:10;4.57;;;2.42;;
55146;SDS011;41039;49.830;23.988;2022-07-25T07:23:35;3.88;;;2.10;;
55146;SDS011;41039;49.830;23.988;2022-07-25T07:26:00;3.60;;;2.33;;
55146;SDS011;41039;49.830;23.988;2022-07-25T07:28:26;4.57;;;2.30;;
55146;SDS011;41039;49.830;23.988;2022-07-25T07:30:51;5.63;;;2.42;;
55146;SDS011;41039;49.830;23.988;2022-07-25T07:33:16;7.07;;;2.80;;
55146;SDS011;41039;49.830;23.988;2022-07-25T07:35:44;4.67;;;3.07;;
55146;SDS011;41039;49.830;23.988;2022-07-25T07:38:09;4.57;;;2.60;;
55146;SDS011;41039;49.830;23.988;2022-07-25T07:40:35;8.30;;;2.92;;
55146;SDS011;41039;49.830;23.988;2022-07-25T07:43:01;4.28;;;2.30;;
55146;SDS011;41039;49.830;23.988;2022-07-25T07:45:28;5.25;;;2.50;;
55146;SDS011;41039;49.830;23.988;2022-07-25T07:47:54;3.88;;;2.55;;
55146;SDS011;41039;49.830;23.988;2022-07-25T07:50:23;4.57;;;2.10;;
55146;SDS011;41039;49.830;23.988;2022-07-25T07:52:48;5.30;;;2.67;;
55146;SDS011;41039;49.830;23.988;2022-07-25T07:55:14;6.05;;;2.70;;
55146;SDS011;41039;49.830;23.988;2022-07-25T07:57:58;7.93;;;3.38;;
55146;SDS011;41039;49.830;23.988;2022-07-25T08:00:23;9.20;;;3.10;;
55146;SDS011;41039;49.830;23.988;2022-07-25T08:02:51;12.60;;;2.95;;
55146;SDS011;41039;49.830;23.988;2022-07-25T08:05:21;3.85;;;1.90;;
55146;SDS011;41039;49.830;23.988;2022-07-25T08:07:47;4.00;;;2.35;;
55146;SDS011;41039;49.830;23.988;2022-07-25T08:10:12;4.03;;;1.92;;
55146;SDS011;41039;49.830;23.988;2022-07-25T08:12:40;7.80;;;2.65;;
55146;SDS011;41039;49.830;23.988;2022-07-25T08:15:06;14.80;;;10.45;;
55146;SDS011;41039;49.830;23.988;2022-07-25T08:17:31;9.68;;;6.93;;
55146;SDS011;41039;49.830;23.988;2022-07-25T08:19:57;5.97;;;3.63;;
55146;SDS011;41039;49.830;23.988;2022-07-25T08:22:22;3.10;;;2.10;;
55146;SDS011;41039;49.830;23.988;2022-07-25T08:24:47;2.40;;;1.90;;
55146;SDS011;41039;49.830;23.988;2022-07-25T08:27:12;2.90;;;1.93;;
55146;SDS011;41039;49.830;23.988;2022-07-25T08:29:37;2.70;;;1.93;;
55146;SDS011;41039;49.830;23.988;2022-07-25T08:32:03;3.92;;;2.45;;
55146;SDS011;41039;49.830;23.988;2022-07-25T08:34:28;6.18;;;2.58;;
55146;SDS011;41039;49.830;23.988;2022-07-25T08:36:53;4.47;;;2.50;;
55146;SDS011;41039;49.830;23.988;2022-07-25T08:39:19;3.40;;;2.50;;
55146;SDS011;41039;49.830;23.988;2022-07-25T08:41:44;4.10;;;2.53;;
55146;SDS011;41039;49.830;23.988;2022-07-25T08:44:09;5.00;;;2.65;;
55146;SDS011;41039;49.830;23.988;2022-07-25T08:46:35;3.53;;;2.42;;
55146;SDS011;41039;49.830;23.988;2022-07-25T08:49:01;6.35;;;2.45;;
55146;SDS011;41039;49.830;23.988;2022-07-25T08:51:27;5.22;;;2.17;;
55146;SDS011;41039;49.830;23.988;2022-07-25T08:53:53;4.30;;;2.35;;
55146;SDS011;41039;49.830;23.988;2022-07-25T08:56:18;2.92;;;1.98;;
55146;SDS011;41039;49.830;23.988;2022-07-25T08:58:44;3.50;;;2.40;;
55146;SDS011;41039;49.830;23.988;2022-07-25T09:01:09;3.50;;;2.70;;
55146;SDS011;41039;49.830;23.988;2022-07-25T09:03:34;3.53;;;2.87;;
55146;SDS011;41039;49.830;23.988;2022-07-25T09:06:00;3.35;;;2.30;;
55146;SDS011;41039;49.830;23.988;2022-07-25T09:08:25;8.05;;;2.92;;
55146;SDS011;41039;49.830;23.988;2022-07-25T09:10:51;2.40;;;1.90;;
55146;SDS011;41039;49.830;23.988;2022-07-25T09:13:17;3.53;;;2.50;;
55146;SDS011;41039;49.830;23.988;2022-07-25T09:15:52;4.32;;;1.67;;
55146;SDS011;41039;49.830;23.988;2022-07-25T09:18:24;2.90;;;1.98;;
55146;SDS011;41039;49.830;23.988;2022-07-25T09:20:50;5.00;;;2.35;;
55146;SDS011;41039;49.830;23.988;2022-07-25T09:23:32;3.40;;;1.88;;
55146;SDS011;41039;49.830;23.988;2022-07-25T09:26:01;4.90;;;1.88;;
55146;SDS011;41039;49.830;23.988;2022-07-25T09:28:27;2.97;;;1.80;;
55146;SDS011;41039;49.830;23.988;2022-07-25T09:30:57;3.90;;;2.17;;
55146;SDS011;41039;49.830;23.988;2022-07-25T09:33:25;4.72;;;3.28;;
55146;SDS011;41039;49.830;23.988;2022-07-25T09:35:51;5.93;;;3.30;;
55146;SDS011;41039;49.830;23.988;2022-07-25T09:38:16;14.02;;;12.52;;
55146;SDS011;41039;49.830;23.988;2022-07-25T09:40:52;3.42;;;2.40;;
55146;SDS011;41039;49.830;23.988;2022-07-25T09:43:17;4.22;;;2.30;;
55146;SDS011;41039;49.830;23.988;2022-07-25T09:45:49;2.67;;;1.93;;
55146;SDS011;41039;49.830;23.988;2022-07-25T09:48:16;2.93;;;1.87;;
55146;SDS011;41039;49.830;23.988;2022-07-25T09:50:42;3.28;;;1.98;;
55146;SDS011;41039;49.830;23.988;2022-07-25T09:53:07;3.42;;;2.33;;
55146;SDS011;41039;49.830;23.988;2022-07-25T09:55:32;7.35;;;3.92;;
55146;SDS011;41039;49.830;23.988;2022-07-25T09:57:58;3.88;;;2.63;;
55146;SDS011;41039;49.830;23.988;2022-07-25T10:00:24;2.83;;;1.70;;
55146;SDS011;41039;49.830;23.988;2022-07-25T10:07:49;4.25;;;3.20;;
55146;SDS011;41039;49.830;23.988;2022-07-25T10:10:23;2.38;;;1.83;;
55146;SDS011;41039;49.830;23.988;2022-07-25T10:13:02;3.65;;;2.25;;
55146;SDS011;41039;49.830;23.988;2022-07-25T10:15:38;3.13;;;2.13;;
55146;SDS011;41039;49.830;23.988;2022-07-25T10:18:03;3.88;;;1.88;;
55146;SDS011;41039;49.830;23.988;2022-07-25T10:20:30;4.80;;;3.50;;
55146;SDS011;41039;49.830;23.988;2022-07-25T10:22:56;3.92;;;2.00;;
55146;SDS011;41039;49.830;23.988;2022-07-25T10:25:21;4.40;;;2.23;;
55146;SDS011;41039;49.830;23.988;2022-07-25T10:27:47;4.70;;;2.28;;
55146;SDS011;41039;49.830;23.988;2022-07-25T10:30:18;4.97;;;2.53;;
55146;SDS011;41039;49.830;23.988;2022-07-25T10:33:17;4.43;;;2.55;;
55146;SDS011;41039;49.830;23.988;2022-07-25T10:35:36;3.50;;;1.83;;
55146;SDS011;41039;49.830;23.988;2022-07-25T10:38:02;3.47;;;2.03;;
55146;SDS011;41039;49.830;23.988;2022-07-25T10:40:31;2.50;;;1.88;;
55146;SDS011;41039;49.830;23.988;2022-07-25T10:45:37;3.17;;;2.03;;
55146;SDS011;41039;49.830;23.988;2022-07-25T10:48:10;4.25;;;3.08;;
55146;SDS011;41039;49.830;23.988;2022-07-25T10:50:49;6.53;;;2.40;;
55146;SDS011;41039;49.830;23.988;2022-07-25T10:53:15;2.60;;;2.10;;
55146;SDS011;41039;49.830;23.988;2022-07-25T10:55:55;4.55;;;1.98;;
55146;SDS011;41039;49.830;23.988;2022-07-25T10:58:20;5.03;;;2.08;;
55146;SDS011;41039;49.830;23.988;2022-07-25T11:00:46;3.70;;;1.90;;
55146;SDS011;41039;49.830;23.988;2022-07-25T11:03:11;3.47;;;1.90;;
55146;SDS011;41039;49.830;23.988;2022-07-25T11:05:43;5.20;;;2.17;;
55146;SDS011;41039;49.830;23.988;2022-07-25T11:08:09;5.20;;;2.58;;
55146;SDS011;41039;49.830;23.988;2022-07-25T11:10:34;5.73;;;2.50;;
55146;SDS011;41039;49.830;23.988;2022-07-25T11:13:00;2.70;;;2.20;;
55146;SDS011;41039;49.830;23.988;2022-07-25T11:15:25;5.85;;;2.67;;
55146;SDS011;41039;49.830;23.988;2022-07-25T11:17:51;3.72;;;2.00;;
55146;SDS011;41039;49.830;23.988;2022-07-25T11:20:17;4.13;;;2.45;;
55146;SDS011;41039;49.830;23.988;2022-07-25T11:22:49;3.78;;;2.28;;
55146;SDS011;41039;49.830;23.988;2022-07-25T11:25:14;2.95;;;2.47;;
55146;SDS011;41039;49.830;23.988;2022-07-25T11:27:39;5.00;;;4.30;;
55146;SDS011;41039;49.830;23.988;2022-07-25T11:32:37;5.20;;;3.23;;
55146;SDS011;41039;49.830;23.988;2022-07-25T11:35:02;4.82;;;2.45;;
55146;SDS011;41039;49.830;23.988;2022-07-25T11:37:27;3.90;;;2.88;;
55146;SDS011;41039;49.830;23.988;2022-07-25T11:39:57;4.65;;;2.95;;
55146;SDS011;41039;49.830;23.988;2022-07-25T11:42:22;3.67;;;3.22;;
55146;SDS011;41039;49.830;23.988;2022-07-25T11:44:51;11.02;;;10.02;;
55146;SDS011;41039;49.830;23.988;2022-07-25T11:47:24;4.35;;;3.95;;
55146;SDS011;41039;49.830;23.988;2022-07-25T11:49:50;4.00;;;2.60;;
55146;SDS011;41039;49.830;23.988;2022-07-25T11:52:17;3.97;;;2.40;;
55146;SDS011;41039;49.830;23.988;2022-07-25T11:54:49;8.95;;;2.50;;
55146;SDS011;41039;49.830;23.988;2022-07-25T11:57:19;4.82;;;2.65;;
55146;SDS011;41039;49.830;23.988;2022-07-25T11:59:44;6.15;;;4.20;;
55146;SDS011;41039;49.830;23.988;2022-07-25T12:02:19;6.07;;;5.38;;
55146;SDS011;41039;49.830;23.988;2022-07-25T12:04:51;3.67;;;3.22;;
55146;SDS011;41039;49.830;23.988;2022-07-25T12:09:42;22.27;;;20.00;;
55146;SDS011;41039;49.830;23.988;2022-07-25T12:12:08;10.35;;;9.10;;
55146;SDS011;41039;49.830;23.988;2022-07-25T12:14:42;7.10;;;6.35;;
55146;SDS011;41039;49.830;23.988;2022-07-25T12:17:07;4.65;;;3.72;;
55146;SDS011;41039;49.830;23.988;2022-07-25T12:19:33;3.60;;;2.42;;
55146;SDS011;41039;49.830;23.988;2022-07-25T12:21:58;4.70;;;2.20;;
55146;SDS011;41039;49.830;23.988;2022-07-25T12:24:23;3.70;;;2.13;;
55146;SDS011;41039;49.830;23.988;2022-07-25T12:26:48;4.13;;;1.80;;
55146;SDS011;41039;49.830;23.988;2022-07-25T12:29:14;8.15;;;2.40;;
55146;SDS011;41039;49.830;23.988;2022-07-25T12:31:39;4.53;;;2.27;;
55146;SDS011;41039;49.830;23.988;2022-07-25T12:34:04;3.47;;;2.27;;
55146;SDS011;41039;49.830;23.988;2022-07-25T12:36:29;3.10;;;2.03;;
55146;SDS011;41039;49.830;23.988;2022-07-25T12:38:55;2.42;;;1.80;;
55146;SDS011;41039;49.830;23.988;2022-07-25T12:41:20;4.03;;;2.05;;
55146;SDS011;41039;49.830;23.988;2022-07-25T12:43:47;5.05;;;2.78;;
55146;SDS011;41039;49.830;23.988;2022-07-25T12:46:13;3.13;;;2.10;;
55146;SDS011;41039;49.830;23.988;2022-07-25T12:48:38;7.87;;;2.87;;
55146;SDS011;41039;49.830;23.988;2022-07-25T12:51:03;5.50;;;2.83;;
55146;SDS011;41039;49.830;23.988;2022-07-25T12:53:29;3.87;;;2.13;;
55146;SDS011;41039;49.830;23.988;2022-07-25T12:55:54;2.60;;;2.10;;
55146;SDS011;41039;49.830;23.988;2022-07-25T12:58:19;2.60;;;2.10;;
55146;SDS011;41039;49.830;23.988;2022-07-25T13:00:45;3.45;;;2.60;;
55146;SDS011;41039;49.830;23.988;2022-07-25T13:03:11;2.40;;;2.03;;
55146;SDS011;41039;49.830;23.988;2022-07-25T13:05:37;4.72;;;2.47;;
55146;SDS011;41039;49.830;23.988;2022-07-25T13:08:04;4.43;;;2.38;;
55146;SDS011;41039;49.830;23.988;2022-07-25T13:10:30;3.28;;;2.58;;
55146;SDS011;41039;49.830;23.988;2022-07-25T13:12:55;6.67;;;3.17;;
55146;SDS011;41039;49.830;23.988;2022-07-25T13:15:20;4.93;;;2.27;;
55146;SDS011;41039;49.830;23.988;2022-07-25T13:17:47;3.75;;;2.20;;
55146;SDS011;41039;49.830;23.988;2022-07-25T13:20:12;2.70;;;1.83;;
55146;SDS011;41039;49.830;23.988;2022-07-25T13:22:39;2.45;;;1.98;;
55146;SDS011;41039;49.830;23.988;2022-07-25T13:25:05;4.47;;;2.25;;
55146;SDS011;41039;49.830;23.988;2022-07-25T13:27:30;4.65;;;2.20;;
55146;SDS011;41039;49.830;23.988;2022-07-25T13:29:55;3.83;;;2.20;;
55146;SDS011;41039;49.830;23.988;2022-07-25T13:32:22;3.97;;;2.33;;
55146;SDS011;41039;49.830;23.988;2022-07-25T13:34:47;5.18;;;2.40;;
55146;SDS011;41039;49.830;23.988;2022-07-25T13:37:12;3.63;;;2.55;;
55146;SDS011;41039;49.830;23.988;2022-07-25T13:39:38;7.47;;;2.93;;
55146;SDS011;41039;49.830;23.988;2022-07-25T13:42:03;9.27;;;3.85;;
55146;SDS011;41039;49.830;23.988;2022-07-25T13:44:29;4.32;;;2.78;;
55146;SDS011;41039;49.830;23.988;2022-07-25T13:46:54;3.80;;;2.70;;
55146;SDS011;41039;49.830;23.988;2022-07-25T13:49:19;2.70;;;2.50;;
55146;SDS011;41039;49.830;23.988;2022-07-25T13:51:44;6.87;;;2.20;;
55146;SDS011;41039;49.830;23.988;2022-07-25T13:54:10;3.10;;;2.37;;
55146;SDS011;41039;49.830;23.988;2022-07-25T13:56:35;3.25;;;2.10;;
55146;SDS011;41039;49.830;23.988;2022-07-25T13:59:01;4.53;;;2.73;;
55146;SDS011;41039;49.830;23.988;2022-07-25T14:01:26;5.85;;;2.95;;
55146;SDS011;41039;49.830;23.988;2022-07-25T14:03:52;5.80;;;3.50;;
55146;SDS011;41039;49.830;23.988;2022-07-25T14:06:18;3.72;;;2.63;;
55146;SDS011;41039;49.830;23.988;2022-07-25T14:08:43;3.80;;;2.40;;
55146;SDS011;41039;49.830;23.988;2022-07-25T14:11:08;3.63;;;2.28;;
55146;SDS011;41039;49.830;23.988;2022-07-25T14:13:34;3.03;;;2.20;;
55146;SDS011;41039;49.830;23.988;2022-07-25T14:15:59;3.08;;;2.17;;
55146;SDS011;41039;49.830;23.988;2022-07-25T14:18:24;4.20;;;2.40;;
55146;SDS011;41039;49.830;23.988;2022-07-25T14:20:50;4.05;;;2.47;;
55146;SDS011;41039;49.830;23.988;2022-07-25T14:23:15;6.83;;;2.80;;
55146;SDS011;41039;49.830;23.988;2022-07-25T14:25:41;5.20;;;2.72;;
55146;SDS011;41039;49.830;23.988;2022-07-25T14:28:06;5.80;;;2.90;;
55146;SDS011;41039;49.830;23.988;2022-07-25T14:30:31;8.30;;;7.30;;
55146;SDS011;41039;49.830;23.988;2022-07-25T14:32:56;5.87;;;4.47;;
55146;SDS011;41039;49.830;23.988;2022-07-25T14:35:22;4.72;;;3.00;;